Terminal Aerodrome Forecast
Issued by NWS Albany, NY

Current Version | Previous Version | Text Only | Print | Product List | Glossary On
Versions: 1 2 3 4 5 6 7 8 9 10 11 12 13 14 15 16 17 18 19 20 21 22 23 24 25 26 27 28 29 30 31 32 33 34
000
FTUS41 KALY 290500
TAFPOU
TAF
KPOU 290525Z 2906/3006 00000KT P6SM SKC
     FM291000 00000KT P6SM SCT070 SCT100
     FM291600 20003KT P6SM BKN100
     FM300000 18005KT P6SM OVC070=

USA.gov is the U.S. government's official web portal to all federal, state and local government web resources and services.